Rio Negro, Brazil
Current Conditions -  °F | °C
As of 9:31 AM on Monday 22 Dec 2014 (Local Time) from SBCG Reporting Station
Light Rain Light Rain  
Wind Chill: 22°   Ceiling: 200
Heat Index: 22°   Visibility: 4mi
Dew Point: 21°   Wind: 28mph
Humidity: 94%   Direction: 340°NNW
Pressure: 29.85"   Gusts: 40mph
Location:  19.45°S, 54.97°W
Report Text: SBCG 221231Z 34024G35KT 6000 -RA BKN002 SCT023 FEW040TCU 22/21 Q1011
Loading
Personal Weather Stations






























Interactive Weather Map New forecast layout! Learn more

10-Day Weather Forecast

Advertisements
Track Severe Weather on mobile